Latest Coastal Weather Observations for Swanbourne

IDW60701

Issued at 12:35 am WST Saturday 1 November 2014 (issued every 10 minutes, with the page automatically refreshed every 10 minutes)

About coastal observations | Map of coastal stations | Coastal observations for WA | Marine services | Other Formats
Station Details ID: 009215 Name: SWANBOURNE Lat: -31.96 Lon: 115.76 Height: 40.96 m
Data from the previous 72 hours. | See also: Recent months at Swanbourne
Date/Time
WST
Temp

°C
Wind Pressure Rain
since 9am
mm
Weather Cloud Vis
km
Sea
Height
m
Swell
Dir
 
Speed
knots
Gust
knots
hPa Trend Height
m
Period
s
Dir
01/12:30am 13.6 ESE 6 8 - - 0.0 - - - - - - -
01/12:00am 13.9 ESE 3 4 - - 0.0 - - - - - - -
 
Date/Time
WST
Temp

°C
Wind Pressure Rain
since 9am
mm
Weather Cloud Vis
km
Sea
Height
m
Swell
Dir
 
Speed
knots
Gust
knots
hPa Trend Height
m
Period
s
Dir
31/11:30pm 14.3 S 4 4 - - 0.0 - - - - - - -
31/11:00pm 14.7 SSE 3 4 - - 0.0 - - - - - - -
31/10:30pm 15.1 SSE 3 5 - - 0.0 - - - - - - -
31/10:00pm 15.3 S 5 7 - - 0.0 - - - - - - -
31/09:30pm 15.7 S 5 6 - - 0.0 - - - - - - -
31/09:00pm 16.3 S 4 7 - - 0.0 - - - - - - -
31/08:30pm 16.8 S 6 8 - - 0.0 - - - - - - -
31/08:00pm 16.9 S 6 9 - - 0.0 - - - - - - -
31/07:30pm 17.1 S 5 8 - - 0.0 - - - - - - -
31/07:00pm 17.4 S 8 12 - - 0.0 - - - - - - -
31/06:30pm 17.7 SSW 9 13 - - 0.0 - - - - - - -
31/06:00pm 18.1 SSW 10 15 - - 0.0 - - - - - - -
31/05:30pm 19.3 SSW 10 17 - - 0.0 - - - - - - -
31/05:00pm 19.7 SSW 11 17 - - 0.0 - - - - - - -
31/04:30pm 19.9 SSW 12 18 - - 0.0 - - - - - - -
31/04:00pm 20.4 SSW 11 19 - - 0.0 - - - - - - -
31/03:30pm 20.4 SSW 12 17 - - 0.0 - - - - - - -
31/03:00pm 20.4 SW 12 18 - - 0.0 - - - - - - -
31/02:30pm 19.6 SW 13 18 - - 0.0 - - - - - - -
31/02:00pm 20.2 SW 14 18 - - 0.0 - - - - - - -
31/01:30pm 18.5 SW 12 18 - - 0.0 - - - - - - -
31/01:00pm 20.3 SW 13 20 - - 0.0 - - - - - - -
31/12:30pm 20.4 SW 12 18 - - 0.0 - - - - - - -
31/12:00pm 20.8 SW 12 17 - - 0.0 - - - - - - -
31/11:30am 21.3 S 8 12 - - 0.0 - - - - - - -
31/11:00am 21.7 S 6 13 - - 0.0 - - - - - - -
31/10:30am 21.2 SSE 7 12 - - 0.0 - - - - - - -
31/10:00am 20.2 S 8 12 - - 0.0 - - - - - - -
31/09:30am 19.2 S 9 15 - - 0.0 - - - - - - -
31/09:00am 18.5 S 8 13 - - 3.4 - - - - - - -
31/08:30am 17.6 SSE 9 14 - - 3.4 - - - - - - -
31/08:00am 16.7 SSE 9 16 - - 3.4 - - - - - - -
31/07:30am 15.5 S 10 16 - - 3.4 - - - - - - -
31/07:00am 13.9 S 9 16 - - 3.4 - - - - - - -
31/06:30am 13.2 S 12 18 - - 3.4 - - - - - - -
31/06:00am 12.9 S 12 18 - - 3.4 Recent precip. - - - - - -
31/05:30am 13.9 SSE 10 16 - - 3.4 - - - - - - -
31/05:00am 14.7 SSE 8 11 - - 3.2 - - - - - - -
31/04:30am 14.9 SSE 9 14 - - 3.0 - - - - - - -
31/04:00am 15.8 SSW 10 19 - - 1.4 - - - - - - -
31/03:30am 17.8 WSW 11 16 - - 0.0 - - - - - - -
31/03:00am 17.8 WSW 12 16 - - 0.0 - - - - - - -
31/02:30am 17.8 WSW 13 19 - - 0.0 - - - - - - -
31/02:00am 17.8 WSW 11 14 - - 0.0 - - - - - - -
31/01:30am 17.4 WSW 10 15 - - 0.0 - - - - - - -
31/01:00am 17.3 SW 11 17 - - 0.0 - - - - - - -
31/12:30am 17.0 SW 9 14 - - 0.0 - - - - - - -
31/12:00am 17.3 WSW 11 15 - - 0.0 - - - - - - -
 
Date/Time
WST
Temp

°C
Wind Pressure Rain
since 9am
mm
Weather Cloud Vis
km
Sea
Height
m
Swell
Dir
 
Speed
knots
Gust
knots
hPa Trend Height
m
Period
s
Dir
30/11:30pm 17.4 WSW 12 16 - - 0.0 - - - - - - -
30/11:00pm 17.1 SW 12 16 - - 0.0 - - - - - - -
30/10:30pm 16.9 SW 11 18 - - 0.0 - - - - - - -
30/10:00pm 16.1 SW 8 11 - - 0.0 - - - - - - -
30/09:30pm 16.7 SW 15 21 - - 0.0 - - - - - - -
30/09:00pm 17.5 WSW 11 17 - - 0.0 - - - - - - -
30/08:30pm 17.7 SW 10 15 - - 0.0 - - - - - - -
30/08:00pm 17.9 WSW 11 15 - - 0.0 - - - - - - -
30/07:30pm 17.8 SW 9 14 - - 0.0 - - - - - - -
30/07:00pm 17.8 WSW 13 21 - - 0.0 - - - - - - -
30/06:30pm 17.8 WSW 11 16 - - 0.0 - - - - - - -
30/06:00pm 17.8 SW 12 18 - - 0.0 - - - - - - -
30/05:30pm 18.0 WSW 12 18 - - 0.0 - - - - - - -
30/05:00pm 18.3 WSW 11 17 - - 0.0 - - - - - - -
30/04:30pm 18.3 SW 11 16 - - 0.0 - - - - - - -
30/04:00pm 18.9 WSW 12 19 - - 0.0 - - - - - - -
30/03:30pm 19.1 WSW 11 19 - - 0.0 - - - - - - -
30/03:00pm 20.8 WSW 11 17 - - 0.0 - - - - - - -
30/02:30pm 20.0 WSW 13 17 - - 0.0 - - - - - - -
30/02:00pm 20.6 WSW 12 17 - - 0.0 - - - - - - -
30/01:30pm 21.6 SW 10 14 - - 0.0 - - - - - - -
30/01:00pm 20.9 SW 10 15 - - 0.0 - - - - - - -
30/12:30pm 21.6 SW 10 15 - - 0.0 - - - - - - -
30/12:00pm 21.7 WSW 11 15 - - 0.0 - - - - - - -
30/11:30am 20.4 SW 10 16 - - 0.0 - - - - - - -
30/11:00am 20.1 SW 11 15 - - 0.0 - - - - - - -
30/10:30am 20.4 SW 10 14 - - 0.0 - - - - - - -
30/10:00am 19.0 SW 10 15 - - 0.0 - - - - - - -
30/09:30am 19.8 SSW 9 12 - - 0.0 - - - - - - -
30/09:00am 19.9 SSW 8 13 - - 0.0 - - - - - - -
30/08:30am 19.2 SSW 9 12 - - 0.0 - - - - - - -
30/08:00am 17.6 SSW 8 12 - - 0.0 - - - - - - -
30/07:30am 16.8 SSW 7 11 - - 0.0 - - - - - - -
30/07:00am 16.6 S 7 11 - - 0.0 - - - - - - -
30/06:30am 16.7 SSW 7 13 - - 0.0 - - - - - - -
30/06:00am 16.6 SSW 9 14 - - 0.0 - - - - - - -
30/05:30am 16.6 SW 10 16 - - 0.0 - - - - - - -
30/05:00am 16.3 S 4 7 - - 0.0 - - - - - - -
30/04:30am 16.4 S 5 8 - - 0.0 - - - - - - -
30/04:00am 16.6 S 6 9 - - 0.0 - - - - - - -
30/03:30am 16.9 SSW 9 15 - - 0.0 - - - - - - -
30/03:00am 16.6 S 8 15 - - 0.0 - - - - - - -
30/02:30am 16.7 SSW 10 15 - - 0.0 - - - - - - -
30/02:00am 16.8 SSW 10 16 - - 0.0 - - - - - - -
30/01:30am 16.8 S 9 13 - - 0.0 - - - - - - -
30/01:00am 16.8 S 9 14 - - 0.0 - - - - - - -
30/12:30am 17.2 SSW 12 19 - - 0.0 - - - - - - -
30/12:00am 17.3 SSW 12 18 - - 0.0 - - - - - - -
 
Date/Time
WST
Temp

°C
Wind Pressure Rain
since 9am
mm
Weather Cloud Vis
km
Sea
Height
m
Swell
Dir
 
Speed
knots
Gust
knots
hPa Trend Height
m
Period
s
Dir
29/11:30pm 17.6 SSW 12 18 - - 0.0 - - - - - - -
29/11:00pm 17.9 SSW 10 16 - - 0.0 - - - - - - -
29/10:30pm 17.8 SSW 9 14 - - 0.0 - - - - - - -
29/10:00pm 17.9 SSW 9 14 - - 0.0 - - - - - - -
29/09:30pm 17.9 S 9 15 - - 0.0 - - - - - - -
29/09:00pm 18.1 SSW 11 18 - - 0.0 - - - - - - -
29/08:30pm 18.1 SSW 12 17 - - 0.0 - - - - - - -
29/08:00pm 18.1 SSW 12 18 - - 0.0 - - - - - - -
29/07:30pm 18.1 SSW 10 15 - - 0.0 - - - - - - -
29/07:00pm 18.4 SW 12 17 - - 0.0 - - - - - - -
29/06:30pm 19.0 SW 9 13 - - 0.0 - - - - - - -
29/06:00pm 20.0 SSW 9 14 - - 0.0 - - - - - - -
29/05:30pm 20.4 SSW 9 15 - - 0.0 - - - - - - -
29/05:00pm 20.6 SW 13 19 - - 0.0 - - - - - - -
29/04:30pm 21.0 SSW 13 20 - - 0.0 - - - - - - -
29/04:00pm 21.3 SW 12 18 - - 0.0 - - - - - - -
29/03:30pm 21.6 SW 10 15 - - 0.0 - - - - - - -
29/03:00pm 22.6 SW 11 18 - - 0.0 - - - - - - -
29/02:30pm 21.3 SSW 11 17 - - 0.0 - - - - - - -
29/02:00pm 23.5 SSW 11 18 - - 0.0 - - - - - - -
29/01:30pm 22.1 SSW 12 17 - - 0.0 - - - - - - -
29/01:00pm 22.4 SSW 14 18 - - 0.0 - - - - - - -
29/12:30pm 21.8 SSW 16 23 - - 0.0 - - - - - - -
29/12:00pm 22.2 SSW 14 21 - - 0.0 - - - - - - -
29/11:30am 21.9 SSW 15 20 - - 0.0 - - - - - - -
29/11:00am 21.7 SSW 11 16 - - 0.0 - - - - - - -
29/10:30am 22.1 SW 8 13 - - 0.0 - - - - - - -
29/10:00am 22.1 SSW 9 13 - - 0.0 - - - - - - -
29/09:30am 20.1 SSW 9 13 - - 0.0 - - - - - - -
29/09:00am 19.9 SSW 9 13 - - 0.0 - - - - - - -
29/08:30am 20.5 SSW 8 13 - - 0.0 - - - - - - -
29/08:00am 20.5 SSW 9 12 - - 0.0 - - - - - - -
29/07:30am 21.0 S 6 9 - - 0.0 - - - - - - -
29/07:00am 17.8 S 4 6 - - 0.0 - - - - - - -
29/06:30am 18.1 S 4 6 - - 0.0 - - - - - - -
29/06:00am 17.2 S 6 8 - - 0.0 - - - - - - -
29/05:30am 17.5 S 5 7 - - 0.0 - - - - - - -
29/05:00am 17.8 S 5 8 - - 0.0 - - - - - - -
29/04:30am 18.0 S 7 8 - - 0.0 - - - - - - -
29/04:00am 18.4 SW 6 9 - - 0.0 - - - - - - -
29/03:30am 18.2 S 7 11 - - 0.0 - - - - - - -
29/03:00am 18.3 S 7 12 - - 0.0 - - - - - - -
29/02:30am 18.4 S 6 9 - - 0.0 - - - - - - -
29/02:00am 18.3 S 5 8 - - 0.0 - - - - - - -
29/01:30am 18.1 S 5 8 - - 0.0 - - - - - - -
29/01:00am 18.4 S 5 7 - - 0.0 - - - - - - -

Other Formats:

Comma delimited format used in spreadsheet applications
http://www.bom.gov.au/fwo/IDW60701/IDW60701.94614.axf

JavaScript Object Notation format (JSON) in row-major order
http://www.bom.gov.au/fwo/IDW60701/IDW60701.94614.json